createdAt,value
2024-02-19T00:00:06.818Z,8.48
2024-02-19T00:02:45.061Z,8.46
2024-02-19T00:05:16.830Z,8.43
2024-02-19T00:07:48.733Z,8.38
2024-02-19T00:10:20.715Z,8.39
2024-02-19T00:12:52.838Z,8.37
2024-02-19T00:15:24.611Z,8.36
2024-02-19T00:17:56.458Z,8.36
2024-02-19T00:20:31.201Z,8.32
2024-02-19T00:23:02.805Z,8.36
2024-02-19T00:25:35.066Z,8.33
2024-02-19T00:28:06.965Z,8.33
2024-02-19T00:30:39.699Z,8.40
2024-02-19T00:33:11.677Z,8.40
2024-02-19T00:35:43.430Z,8.40
2024-02-19T00:38:15.121Z,8.41
2024-02-19T00:40:48.081Z,8.43
2024-02-19T00:43:19.806Z,8.40
2024-02-19T00:45:52.850Z,8.37
2024-02-19T00:48:27.532Z,8.38
2024-02-19T00:50:59.435Z,8.36
2024-02-19T00:53:31.164Z,8.34
2024-02-19T00:56:02.971Z,8.35
2024-02-19T00:58:35.201Z,8.31
2024-02-19T01:01:09.807Z,8.31
2024-02-19T01:03:45.295Z,8.36
2024-02-19T01:06:17.180Z,8.41
2024-02-19T01:08:51.762Z,8.46
2024-02-19T01:11:23.536Z,8.49
2024-02-19T01:13:55.294Z,8.49
2024-02-19T01:16:27.102Z,8.51
2024-02-19T01:18:58.978Z,8.52
2024-02-19T01:21:33.338Z,8.51
2024-02-19T01:24:05.037Z,8.50
2024-02-19T01:26:37.101Z,8.48
2024-02-19T01:29:08.841Z,8.48
2024-02-19T01:31:40.566Z,8.46
2024-02-19T01:34:15.748Z,8.51
2024-02-19T01:36:47.799Z,8.51
2024-02-19T01:39:21.864Z,8.51
2024-02-19T01:41:53.533Z,8.57
2024-02-19T01:44:25.722Z,8.49
2024-02-19T01:46:58.817Z,8.50
2024-02-19T01:49:30.731Z,8.55
2024-02-19T01:52:02.838Z,8.50
2024-02-19T01:54:35.689Z,8.50
2024-02-19T01:57:08.205Z,8.59
2024-02-19T01:59:44.680Z,8.63
2024-02-19T02:02:17.989Z,8.62
2024-02-19T02:04:51.497Z,8.65
2024-02-19T02:07:23.989Z,8.69
2024-02-19T02:09:56.173Z,8.71
2024-02-19T02:12:28.133Z,8.75
2024-02-19T02:14:59.888Z,8.81
2024-02-19T02:17:34.585Z,8.87
2024-02-19T02:20:06.644Z,8.89
2024-02-19T02:22:39.804Z,8.92
2024-02-19T02:25:11.581Z,8.96
2024-02-19T02:27:43.347Z,8.94
2024-02-19T02:30:15.517Z,8.98
2024-02-19T02:32:47.315Z,9.01
2024-02-19T02:35:19.077Z,9.08
2024-02-19T02:37:51.980Z,9.04
2024-02-19T02:40:23.776Z,9.09
2024-02-19T02:42:55.742Z,9.09
2024-02-19T02:45:27.487Z,9.09
2024-02-19T02:47:59.460Z,9.11
2024-02-19T02:50:31.250Z,9.15
2024-02-19T02:53:03.008Z,9.15
2024-02-19T02:55:35.943Z,9.19
2024-02-19T02:58:07.694Z,9.25
2024-02-19T03:00:39.920Z,9.25
2024-02-19T03:03:12.258Z,9.24
2024-02-19T03:05:43.991Z,9.24
2024-02-19T03:08:15.752Z,9.24
2024-02-19T03:10:47.523Z,9.28
2024-02-19T03:13:19.386Z,9.30
2024-02-19T03:15:51.435Z,9.33
2024-02-19T03:18:25.637Z,9.35
2024-02-19T03:20:57.749Z,9.33
2024-02-19T03:23:29.566Z,9.36
2024-02-19T03:26:01.242Z,9.39
2024-02-19T03:28:34.444Z,9.43
2024-02-19T03:31:06.216Z,9.45
2024-02-19T03:33:39.946Z,9.48
2024-02-19T03:36:12.326Z,9.50
2024-02-19T03:38:44.118Z,9.50
2024-02-19T03:41:15.849Z,9.50
2024-02-19T03:43:50.563Z,9.50
2024-02-19T03:46:22.190Z,9.47
2024-02-19T03:48:58.132Z,9.44
2024-02-19T03:51:29.999Z,9.45
2024-02-19T03:54:01.774Z,9.43
2024-02-19T03:56:33.545Z,9.41
2024-02-19T03:59:06.219Z,9.35
2024-02-19T04:01:38.983Z,9.35
2024-02-19T04:04:11.019Z,9.35
2024-02-19T04:06:43.460Z,9.35
2024-02-19T04:09:15.378Z,9.33
2024-02-19T04:11:47.121Z,9.35
2024-02-19T04:14:18.838Z,9.39
2024-02-19T04:16:50.549Z,9.39
2024-02-19T04:19:22.403Z,9.37
2024-02-19T04:21:54.162Z,9.36
2024-02-19T04:24:25.922Z,9.36
2024-02-19T04:26:57.702Z,9.37
2024-02-19T04:29:29.445Z,9.34
2024-02-19T04:32:01.166Z,9.36
2024-02-19T04:34:38.316Z,9.34
2024-02-19T04:37:13.296Z,9.36
2024-02-19T04:39:45.149Z,9.33
2024-02-19T04:42:17.642Z,9.35
2024-02-19T04:44:49.330Z,9.37
2024-02-19T04:47:21.433Z,9.37
2024-02-19T04:49:53.390Z,9.41
2024-02-19T04:52:27.889Z,9.40
2024-02-19T04:54:59.777Z,9.43
2024-02-19T04:57:31.637Z,9.42
2024-02-19T05:00:04.388Z,9.45
2024-02-19T05:02:36.213Z,9.47
2024-02-19T05:05:09.909Z,9.47
2024-02-19T05:07:41.686Z,9.50
2024-02-19T05:10:14.371Z,9.52
2024-02-19T05:12:46.149Z,9.51
2024-02-19T05:15:17.861Z,9.49
2024-02-19T05:17:49.638Z,9.51
2024-02-19T05:20:21.547Z,9.54
2024-02-19T05:22:53.251Z,9.57
2024-02-19T05:25:25.180Z,9.59
2024-02-19T05:27:59.438Z,9.58
2024-02-19T05:30:31.458Z,9.61
2024-02-19T05:33:03.748Z,9.64
2024-02-19T05:35:35.549Z,9.62
2024-02-19T05:38:07.274Z,9.64
2024-02-19T05:40:42.623Z,9.61
2024-02-19T05:43:14.917Z,9.62
2024-02-19T05:45:46.747Z,9.60
2024-02-19T05:48:22.668Z,9.62
2024-02-19T05:50:55.885Z,9.61
2024-02-19T05:53:27.764Z,9.63
2024-02-19T05:55:59.459Z,9.63
2024-02-19T05:58:34.134Z,9.66
2024-02-19T06:01:05.796Z,9.66
2024-02-19T06:03:37.758Z,9.69
2024-02-19T06:06:09.619Z,9.73
2024-02-19T06:08:41.392Z,9.75
2024-02-19T06:11:13.090Z,9.75
2024-02-19T06:13:46.045Z,9.79
2024-02-19T06:16:18.133Z,9.79
2024-02-19T06:18:50.279Z,9.81
2024-02-19T06:21:22.139Z,9.84
2024-02-19T06:23:53.801Z,9.85
2024-02-19T06:26:25.547Z,9.89
2024-02-19T06:28:57.323Z,9.84
2024-02-19T06:31:29.342Z,9.88
2024-02-19T06:34:04.468Z,9.85
2024-02-19T06:36:36.417Z,9.81
2024-02-19T06:39:08.673Z,9.80
2024-02-19T06:41:40.381Z,9.82
2024-02-19T06:44:12.176Z,9.87
2024-02-19T06:46:43.960Z,9.89
2024-02-19T06:49:16.075Z,9.89
2024-02-19T06:51:47.898Z,9.90
2024-02-19T06:54:19.679Z,9.92
2024-02-19T06:56:51.426Z,9.90
2024-02-19T06:59:23.168Z,9.92
2024-02-19T07:01:54.988Z,9.94
2024-02-19T07:04:26.747Z,9.99
2024-02-19T07:06:58.517Z,10.02
2024-02-19T07:09:30.225Z,10.02
2024-02-19T07:12:02.017Z,10.05
2024-02-19T07:14:33.816Z,10.04
2024-02-19T07:17:05.609Z,10.05
2024-02-19T07:19:37.448Z,10.07
2024-02-19T07:22:09.253Z,10.09
2024-02-19T07:24:42.380Z,10.02
2024-02-19T07:27:14.085Z,10.01
2024-02-19T07:29:45.821Z,10.04
2024-02-19T07:32:17.574Z,10.08
2024-02-19T07:34:49.496Z,10.13
2024-02-19T07:37:21.544Z,10.18
2024-02-19T07:39:53.478Z,10.21
2024-02-19T07:42:25.369Z,10.24
2024-02-19T07:44:57.239Z,10.27
2024-02-19T07:47:28.980Z,10.27
2024-02-19T07:50:04.102Z,10.26
2024-02-19T07:52:36.069Z,10.27
2024-02-19T07:55:08.214Z,10.30
2024-02-19T07:57:40.112Z,10.29
2024-02-19T08:00:13.465Z,10.31
2024-02-19T08:02:50.888Z,10.81
2024-02-19T08:05:22.677Z,11.88
2024-02-19T08:07:54.644Z,13.47
2024-02-19T08:10:26.455Z,14.45
2024-02-19T08:12:58.401Z,14.94
2024-02-19T08:15:30.366Z,14.67
2024-02-19T08:18:02.167Z,14.43
2024-02-19T08:20:34.554Z,14.10
2024-02-19T08:23:06.375Z,13.92
2024-02-19T08:25:38.751Z,13.62
2024-02-19T08:28:13.504Z,13.35
2024-02-19T08:30:45.638Z,12.91
2024-02-19T08:33:17.506Z,12.48
2024-02-19T08:35:51.482Z,12.19
2024-02-19T08:38:26.119Z,12.06
2024-02-19T08:40:57.859Z,11.94
2024-02-19T08:43:31.177Z,11.87
2024-02-19T08:46:03.054Z,11.66
2024-02-19T08:48:37.891Z,11.56
2024-02-19T08:51:10.430Z,11.54
2024-02-19T08:53:42.219Z,11.47
2024-02-19T08:56:14.072Z,11.35
2024-02-19T08:58:45.864Z,11.36
2024-02-19T09:01:20.246Z,11.31
2024-02-19T09:03:52.235Z,11.29
2024-02-19T09:06:24.109Z,11.21
2024-02-19T09:08:55.903Z,11.19
2024-02-19T09:11:28.126Z,11.15
2024-02-19T09:14:00.195Z,11.17
2024-02-19T09:16:35.575Z,11.23
2024-02-19T09:19:10.177Z,11.28
2024-02-19T09:21:44.661Z,11.29
2024-02-19T09:24:17.889Z,11.29
2024-02-19T09:26:49.611Z,11.26
2024-02-19T09:29:23.791Z,11.25
2024-02-19T09:31:55.994Z,11.12
2024-02-19T09:34:27.956Z,10.99
2024-02-19T09:37:01.087Z,10.87
2024-02-19T09:39:33.384Z,10.90
2024-02-19T09:42:14.238Z,10.79
2024-02-19T09:44:48.547Z,10.77
2024-02-19T09:47:21.334Z,10.73
2024-02-19T09:49:54.665Z,10.67
2024-02-19T09:52:30.032Z,10.60
2024-02-19T09:55:04.630Z,10.53
2024-02-19T09:57:39.342Z,10.49
2024-02-19T10:00:12.593Z,10.46
2024-02-19T10:02:44.336Z,10.38
2024-02-19T10:05:16.293Z,10.32
2024-02-19T10:07:48.189Z,10.28
2024-02-19T10:10:20.233Z,10.31
2024-02-19T10:12:52.043Z,10.32
2024-02-19T10:15:23.958Z,10.30
2024-02-19T10:17:55.733Z,10.40
2024-02-19T10:20:29.371Z,10.40
2024-02-19T10:23:01.530Z,10.39
2024-02-19T10:25:33.271Z,10.36
2024-02-19T10:28:09.117Z,10.39
2024-02-19T10:30:44.589Z,10.51
2024-02-19T10:33:16.801Z,10.63
2024-02-19T10:35:50.732Z,10.75
2024-02-19T10:38:23.379Z,10.74
2024-02-19T10:40:56.056Z,10.67
2024-02-19T10:43:27.880Z,10.64
2024-02-19T10:46:00.341Z,10.60
2024-02-19T10:48:33.539Z,10.58
2024-02-19T10:51:06.010Z,10.61
2024-02-19T10:53:37.899Z,10.55
2024-02-19T10:56:21.788Z,10.45
2024-02-19T10:58:54.841Z,10.41
2024-02-19T11:01:48.632Z,10.32
2024-02-19T11:04:25.038Z,10.21
2024-02-19T11:06:58.716Z,10.10
2024-02-19T11:09:37.631Z,9.99
2024-02-19T11:12:15.332Z,10.00
2024-02-19T11:14:51.397Z,10.01
2024-02-19T11:17:26.576Z,10.19
2024-02-19T11:20:00.487Z,10.39
2024-02-19T11:22:33.440Z,10.58
2024-02-19T11:25:05.460Z,10.67
2024-02-19T11:27:37.320Z,10.82
2024-02-19T11:30:13.727Z,10.93
2024-02-19T11:32:46.110Z,10.99
2024-02-19T11:35:17.994Z,11.00
2024-02-19T11:37:49.936Z,11.00
2024-02-19T11:40:21.831Z,11.07
2024-02-19T11:42:53.720Z,11.13
2024-02-19T11:45:26.319Z,11.23
2024-02-19T11:48:04.017Z,11.30
2024-02-19T11:50:35.889Z,11.38
2024-02-19T11:53:09.147Z,11.48
2024-02-19T11:55:41.205Z,11.46
2024-02-19T11:58:16.235Z,11.43
2024-02-19T12:00:48.816Z,11.30
2024-02-19T12:03:27.746Z,11.21
2024-02-19T12:06:01.729Z,11.16
2024-02-19T12:08:33.691Z,11.05
2024-02-19T12:11:07.966Z,10.95
2024-02-19T12:13:42.024Z,10.87
2024-02-19T12:16:16.113Z,10.82
2024-02-19T12:18:50.240Z,10.79
2024-02-19T12:21:23.609Z,10.79
2024-02-19T12:23:55.597Z,10.77
2024-02-19T12:26:27.762Z,10.76
2024-02-19T12:28:59.488Z,10.72
2024-02-19T12:31:31.903Z,10.72
2024-02-19T12:34:03.823Z,10.68
2024-02-19T12:36:36.358Z,10.68
2024-02-19T12:39:11.442Z,10.66
2024-02-19T12:41:48.226Z,10.64
2024-02-19T12:44:20.148Z,10.65
2024-02-19T12:46:51.906Z,10.78
2024-02-19T12:49:23.782Z,10.85
2024-02-19T12:52:01.971Z,10.89
2024-02-19T12:54:33.791Z,10.96
2024-02-19T12:57:07.123Z,10.91
2024-02-19T12:59:41.997Z,10.92
2024-02-19T13:02:17.410Z,10.79
2024-02-19T13:04:50.554Z,10.80
2024-02-19T13:07:22.706Z,10.76
2024-02-19T13:09:55.792Z,10.76
2024-02-19T13:12:27.670Z,10.80
2024-02-19T13:15:00.854Z,10.82
2024-02-19T13:17:40.039Z,10.73
2024-02-19T13:20:16.693Z,10.74
2024-02-19T13:22:48.743Z,10.76
2024-02-19T13:25:21.174Z,10.81
2024-02-19T13:27:53.014Z,10.87
2024-02-19T13:30:25.011Z,10.81
2024-02-19T13:33:00.246Z,10.70
2024-02-19T13:35:32.157Z,10.71
2024-02-19T13:38:04.135Z,10.64
2024-02-19T13:40:36.554Z,10.63
2024-02-19T13:43:08.909Z,10.62
2024-02-19T13:46:04.806Z,10.56
2024-02-19T13:48:38.162Z,10.50
2024-02-19T13:51:10.132Z,10.50
2024-02-19T13:53:41.855Z,10.50
2024-02-19T13:56:16.138Z,10.53
2024-02-19T13:58:48.623Z,10.54
2024-02-19T14:01:20.807Z,10.48
2024-02-19T14:03:52.857Z,10.44
2024-02-19T14:06:24.834Z,10.38
2024-02-19T14:08:58.037Z,10.33
2024-02-19T14:11:30.975Z,10.32
2024-02-19T14:14:03.792Z,10.31
2024-02-19T14:16:36.112Z,10.29
2024-02-19T14:19:08.039Z,10.31
2024-02-19T14:21:39.804Z,10.34
2024-02-19T14:24:11.592Z,10.38
2024-02-19T14:26:44.090Z,10.38
2024-02-19T14:29:16.313Z,10.40
2024-02-19T14:31:54.216Z,10.43
2024-02-19T14:34:26.704Z,10.44
2024-02-19T14:36:58.609Z,10.42
2024-02-19T14:39:31.806Z,10.45
2024-02-19T14:42:03.698Z,10.45
2024-02-19T14:44:35.874Z,10.47
2024-02-19T14:47:07.816Z,10.52
2024-02-19T14:49:40.847Z,10.51
2024-02-19T14:52:12.877Z,10.53
2024-02-19T14:54:44.846Z,10.48
2024-02-19T14:57:17.752Z,10.50
2024-02-19T14:59:51.872Z,10.45
2024-02-19T15:02:23.709Z,10.46
2024-02-19T15:04:55.575Z,10.41
2024-02-19T15:07:27.505Z,10.39
2024-02-19T15:10:00.324Z,10.35
2024-02-19T15:12:34.314Z,10.38
2024-02-19T15:15:11.239Z,10.37
2024-02-19T15:17:43.185Z,10.34
2024-02-19T15:20:15.988Z,10.40
2024-02-19T15:22:50.369Z,10.44
2024-02-19T15:25:22.154Z,10.42
2024-02-19T15:27:54.020Z,10.38
2024-02-19T15:30:25.918Z,10.32
2024-02-19T15:32:59.445Z,10.27
2024-02-19T15:35:31.341Z,10.21
2024-02-19T15:38:03.135Z,10.17
2024-02-19T15:40:36.028Z,10.10
2024-02-19T15:43:10.465Z,10.09
2024-02-19T15:45:45.653Z,10.06
2024-02-19T15:48:17.616Z,10.06
2024-02-19T15:50:49.541Z,10.06
2024-02-19T15:53:28.221Z,10.05
2024-02-19T15:56:01.792Z,10.05
2024-02-19T15:58:37.266Z,10.00
2024-02-19T16:01:09.166Z,9.98
2024-02-19T16:03:40.931Z,9.95
2024-02-19T16:06:13.283Z,9.93
2024-02-19T16:08:45.777Z,9.93
2024-02-19T16:11:17.533Z,9.91
2024-02-19T16:13:51.365Z,9.89
2024-02-19T16:16:24.689Z,9.91
2024-02-19T16:18:58.258Z,9.88
2024-02-19T16:21:30.174Z,9.88
2024-02-19T16:24:01.969Z,9.88
2024-02-19T16:26:34.303Z,9.88
2024-02-19T16:29:06.216Z,9.85
2024-02-19T16:31:40.054Z,9.84
2024-02-19T16:34:11.982Z,9.86
2024-02-19T16:36:43.817Z,9.89
2024-02-19T16:39:15.711Z,9.85
2024-02-19T16:41:47.511Z,9.83
2024-02-19T16:44:19.708Z,9.81
2024-02-19T16:46:51.751Z,9.80
2024-02-19T16:49:26.345Z,9.79
2024-02-19T16:51:58.386Z,9.78
2024-02-19T16:54:30.224Z,9.75
2024-02-19T16:57:01.966Z,9.70
2024-02-19T16:59:33.775Z,9.67
2024-02-19T17:02:06.860Z,9.65
2024-02-19T17:04:40.775Z,9.65
2024-02-19T17:07:12.705Z,9.65
2024-02-19T17:09:44.570Z,9.60
2024-02-19T17:12:16.342Z,9.62
2024-02-19T17:14:48.587Z,9.61
2024-02-19T17:17:20.445Z,9.60
2024-02-19T17:19:52.404Z,9.59
2024-02-19T17:22:24.262Z,9.55
2024-02-19T17:24:56.183Z,9.56
2024-02-19T17:27:28.656Z,9.52
2024-02-19T17:30:00.438Z,9.48
2024-02-19T17:32:32.145Z,9.44
2024-02-19T17:35:04.928Z,9.45
2024-02-19T17:37:36.885Z,9.43
2024-02-19T17:40:12.710Z,9.42
2024-02-19T17:42:45.858Z,9.42
2024-02-19T17:45:17.863Z,9.40
2024-02-19T17:47:51.845Z,9.38
2024-02-19T17:50:23.781Z,9.36
2024-02-19T17:52:59.863Z,9.39
2024-02-19T17:55:31.832Z,9.38
2024-02-19T17:58:04.158Z,9.33
2024-02-19T18:00:36.104Z,9.30
2024-02-19T18:03:07.995Z,9.27
2024-02-19T18:05:40.532Z,9.25
2024-02-19T18:08:13.282Z,9.25
2024-02-19T18:10:45.151Z,9.23
2024-02-19T18:13:20.343Z,9.26
2024-02-19T18:15:55.981Z,9.25
2024-02-19T18:18:28.828Z,9.27
2024-02-19T18:21:00.883Z,9.24
2024-02-19T18:23:33.034Z,9.21
2024-02-19T18:26:06.871Z,9.23
2024-02-19T18:28:39.143Z,9.22
2024-02-19T18:31:12.756Z,9.23
2024-02-19T18:33:44.869Z,9.24
2024-02-19T18:36:16.811Z,9.22
2024-02-19T18:38:48.951Z,9.22
2024-02-19T18:41:21.909Z,9.17
2024-02-19T18:43:53.703Z,9.14
2024-02-19T18:46:26.556Z,9.17
2024-02-19T18:48:59.283Z,9.17
2024-02-19T18:51:31.150Z,9.17
2024-02-19T18:54:02.909Z,9.18
2024-02-19T18:56:34.855Z,9.21
2024-02-19T18:59:06.608Z,9.22
2024-02-19T19:01:38.489Z,9.17
2024-02-19T19:04:11.542Z,9.17
2024-02-19T19:06:43.761Z,9.15
2024-02-19T19:09:15.653Z,9.13
2024-02-19T19:11:47.454Z,9.13
2024-02-19T19:14:19.813Z,9.10
2024-02-19T19:16:53.002Z,9.13
2024-02-19T19:19:26.122Z,9.10
2024-02-19T19:21:59.091Z,9.12
2024-02-19T19:24:32.968Z,9.14
2024-02-19T19:27:07.623Z,9.13
2024-02-19T19:29:39.963Z,9.13
2024-02-19T19:32:17.110Z,9.03
2024-02-19T19:34:49.058Z,9.01
2024-02-19T19:37:24.785Z,8.99
2024-02-19T19:39:56.731Z,8.99
2024-02-19T19:42:28.651Z,8.99
2024-02-19T19:45:03.713Z,8.98
2024-02-19T19:47:40.987Z,8.93
2024-02-19T19:50:15.781Z,8.91
2024-02-19T19:52:48.406Z,8.91
2024-02-19T19:55:38.298Z,8.92
2024-02-19T19:58:28.434Z,8.87
2024-02-19T20:01:05.520Z,8.89
2024-02-19T20:03:38.335Z,8.89
2024-02-19T20:06:11.992Z,8.89
2024-02-19T20:08:46.606Z,8.86
2024-02-19T20:11:18.337Z,8.87
2024-02-19T20:13:51.368Z,8.86
2024-02-19T20:16:24.639Z,8.84
2024-02-19T20:18:58.337Z,8.89
2024-02-19T20:21:30.278Z,8.85
2024-02-19T20:24:03.336Z,8.83
2024-02-19T20:26:38.790Z,8.85
2024-02-19T20:29:17.959Z,8.84
2024-02-19T20:31:49.659Z,8.79
2024-02-19T20:36:53.506Z,8.74
2024-02-19T20:39:26.071Z,8.74
2024-02-19T20:41:57.809Z,8.78
2024-02-19T20:44:29.539Z,8.82
2024-02-19T20:47:01.401Z,8.79
2024-02-19T20:49:33.276Z,8.75
2024-02-19T20:52:06.503Z,8.81
2024-02-19T20:54:38.420Z,8.83
2024-02-19T20:57:10.756Z,8.83
2024-02-19T20:59:42.627Z,8.80
2024-02-19T21:02:14.525Z,8.77
2024-02-19T21:04:46.376Z,8.73
2024-02-19T21:07:18.500Z,8.76
2024-02-19T21:09:50.821Z,8.74
2024-02-19T21:12:22.671Z,8.71
2024-02-19T21:14:54.590Z,8.70
2024-02-19T21:17:29.614Z,8.71
2024-02-19T21:20:01.942Z,8.74
2024-02-19T21:22:33.948Z,8.73
2024-02-19T21:25:06.332Z,8.70
2024-02-19T21:27:38.206Z,8.70
2024-02-19T21:30:10.524Z,8.67
2024-02-19T21:32:45.095Z,8.65
2024-02-19T21:35:18.570Z,8.65
2024-02-19T21:37:50.411Z,8.64
2024-02-19T21:40:22.287Z,8.63
2024-02-19T21:42:54.077Z,8.65
2024-02-19T21:45:25.941Z,8.68
2024-02-19T21:47:58.256Z,8.68
2024-02-19T21:50:32.458Z,8.66
2024-02-19T21:53:05.708Z,8.63
2024-02-19T21:55:40.456Z,8.63
2024-02-19T21:58:12.472Z,8.60
2024-02-19T22:00:44.210Z,8.60
2024-02-19T22:03:16.579Z,8.57
2024-02-19T22:05:48.523Z,8.56
2024-02-19T22:08:20.612Z,8.55
2024-02-19T22:10:52.501Z,8.54
2024-02-19T22:13:24.427Z,8.52
2024-02-19T22:15:56.341Z,8.51
2024-02-19T22:18:28.732Z,8.51
2024-02-19T22:21:00.576Z,8.46
2024-02-19T22:23:32.335Z,8.44
2024-02-19T22:26:05.402Z,8.43
2024-02-19T22:28:40.612Z,8.38
2024-02-19T22:31:12.521Z,8.41
2024-02-19T22:33:44.411Z,8.37
2024-02-19T22:36:16.247Z,8.38
2024-02-19T22:38:48.098Z,8.40
2024-02-19T22:41:19.991Z,8.34
2024-02-19T22:43:53.047Z,8.30
2024-02-19T22:46:24.820Z,8.28
2024-02-19T22:48:58.058Z,8.35
2024-02-19T22:51:29.996Z,8.31
2024-02-19T22:54:03.885Z,8.30
2024-02-19T22:56:35.851Z,8.22
2024-02-19T22:59:14.657Z,8.24
2024-02-19T23:01:53.206Z,8.23
2024-02-19T23:04:25.057Z,8.29
2024-02-19T23:06:56.994Z,8.34
2024-02-19T23:09:30.481Z,8.36
2024-02-19T23:12:02.360Z,8.36
2024-02-19T23:14:34.210Z,8.36
2024-02-19T23:17:06.095Z,8.37
2024-02-19T23:19:37.907Z,8.40
2024-02-19T23:22:10.710Z,8.36
2024-02-19T23:24:42.413Z,8.40
2024-02-19T23:27:14.087Z,8.41
2024-02-19T23:29:45.871Z,8.40
2024-02-19T23:32:17.602Z,8.40
2024-02-19T23:34:49.528Z,8.41
2024-02-19T23:37:24.036Z,8.43
2024-02-19T23:39:55.993Z,8.34
2024-02-19T23:42:27.809Z,8.35
2024-02-19T23:44:59.598Z,8.36
2024-02-19T23:47:31.408Z,8.39
2024-02-19T23:50:06.578Z,8.39
2024-02-19T23:52:41.031Z,8.40
2024-02-19T23:55:18.137Z,8.40
2024-02-19T23:57:50.049Z,8.37
